createdAt,value
2023-03-22T00:00:27.583Z,68.82
2023-03-22T00:02:56.510Z,68.30
2023-03-22T00:05:23.212Z,67.80
2023-03-22T00:07:54.249Z,68.32
2023-03-22T00:10:23.312Z,68.38
2023-03-22T00:12:50.068Z,68.51
2023-03-22T00:15:16.838Z,68.26
2023-03-22T00:17:44.862Z,68.46
2023-03-22T00:20:14.099Z,68.31
2023-03-22T00:22:40.825Z,67.87
2023-03-22T00:25:07.849Z,68.59
2023-03-22T00:27:34.584Z,68.10
2023-03-22T00:30:01.234Z,68.37
2023-03-22T00:32:28.017Z,68.82
2023-03-22T00:34:54.698Z,68.74
2023-03-22T00:37:23.593Z,68.09
2023-03-22T00:39:50.280Z,68.56
2023-03-22T00:42:16.917Z,68.36
2023-03-22T00:44:46.599Z,68.26
2023-03-22T00:47:13.403Z,68.36
2023-03-22T00:49:42.423Z,68.53
2023-03-22T00:52:09.064Z,68.20
2023-03-22T00:54:38.080Z,68.47
2023-03-22T00:57:06.908Z,68.85
2023-03-22T00:59:38.579Z,68.81
2023-03-22T01:02:06.473Z,68.58
2023-03-22T01:04:35.670Z,69.20
2023-03-22T01:07:03.874Z,69.09
2023-03-22T01:09:33.827Z,69.73
2023-03-22T01:12:02.051Z,69.64
2023-03-22T01:14:29.043Z,69.93
2023-03-22T01:16:57.918Z,69.74
2023-03-22T01:19:24.838Z,70.24
2023-03-22T01:21:51.449Z,70.31
2023-03-22T01:24:20.354Z,70.21
2023-03-22T01:26:47.028Z,70.18
2023-03-22T01:29:15.902Z,70.94
2023-03-22T01:31:43.178Z,70.43
2023-03-22T01:34:12.888Z,71.02
2023-03-22T01:36:44.683Z,71.11
2023-03-22T01:39:11.424Z,71.18
2023-03-22T01:41:40.641Z,71.35
2023-03-22T01:44:13.419Z,71.53
2023-03-22T01:46:41.426Z,71.48
2023-03-22T01:49:34.120Z,71.47
2023-03-22T01:52:11.258Z,71.72
2023-03-22T01:54:43.590Z,71.66
2023-03-22T01:57:10.774Z,72.19
2023-03-22T01:59:40.869Z,71.03
2023-03-22T02:02:08.056Z,71.91
2023-03-22T02:04:39.417Z,72.32
2023-03-22T02:07:10.379Z,72.21
2023-03-22T02:09:42.403Z,71.70
2023-03-22T02:12:47.585Z,72.18
2023-03-22T02:15:32.285Z,72.68
2023-03-22T02:18:44.529Z,72.73
2023-03-22T02:21:45.128Z,72.66
2023-03-22T02:24:30.495Z,73.17
2023-03-22T02:27:38.110Z,73.33
2023-03-22T02:30:13.984Z,73.09
2023-03-22T02:32:52.478Z,73.11
2023-03-22T02:35:26.361Z,73.28
2023-03-22T02:38:05.144Z,73.43
2023-03-22T02:40:45.635Z,73.83
2023-03-22T02:43:19.609Z,73.67
2023-03-22T02:46:18.617Z,73.64
2023-03-22T02:49:16.693Z,74.11
2023-03-22T02:51:46.125Z,73.48
2023-03-22T02:54:28.841Z,73.73
2023-03-22T02:57:26.359Z,74.17
2023-03-22T02:59:56.997Z,74.01
2023-03-22T03:02:28.906Z,74.05
2023-03-22T03:04:57.095Z,74.24
2023-03-22T03:07:29.491Z,74.36
2023-03-22T03:09:59.551Z,74.12
2023-03-22T03:12:28.173Z,74.33
2023-03-22T03:14:54.912Z,74.40
2023-03-22T03:18:06.714Z,74.87
2023-03-22T03:20:34.457Z,74.23
2023-03-22T03:23:17.581Z,75.07
2023-03-22T03:25:52.519Z,74.80
2023-03-22T03:28:40.591Z,75.37
2023-03-22T03:31:10.234Z,75.08
2023-03-22T03:33:47.346Z,75.38
2023-03-22T03:36:17.867Z,75.61
2023-03-22T03:38:49.802Z,75.87
2023-03-22T03:41:19.981Z,75.93
2023-03-22T03:43:48.596Z,75.76
2023-03-22T03:46:17.982Z,76.08
2023-03-22T03:48:49.075Z,75.69
2023-03-22T03:51:15.897Z,76.30
2023-03-22T03:53:42.665Z,76.24
2023-03-22T03:56:10.102Z,75.79
2023-03-22T03:58:36.891Z,76.27
2023-03-22T04:01:04.186Z,75.80
2023-03-22T04:03:34.577Z,75.89
2023-03-22T04:06:01.287Z,75.78
2023-03-22T04:08:30.131Z,76.24
2023-03-22T04:10:56.729Z,75.94
2023-03-22T04:13:24.814Z,76.26
2023-03-22T04:15:57.252Z,76.54
2023-03-22T04:18:27.765Z,76.37
2023-03-22T04:20:57.295Z,76.55
2023-03-22T04:23:25.649Z,76.01
2023-03-22T04:25:52.421Z,76.62
2023-03-22T04:28:26.150Z,76.35
2023-03-22T04:30:53.071Z,76.29
2023-03-22T04:33:23.052Z,76.45
2023-03-22T04:35:50.512Z,76.38
2023-03-22T04:38:18.233Z,75.80
2023-03-22T04:40:46.835Z,76.59
2023-03-22T04:43:13.990Z,76.25
2023-03-22T04:45:42.164Z,75.95
2023-03-22T04:48:10.673Z,76.40
2023-03-22T04:50:40.012Z,76.40
2023-03-22T04:53:07.530Z,76.46
2023-03-22T04:55:34.305Z,76.71
2023-03-22T04:58:01.172Z,76.36
2023-03-22T05:00:30.231Z,77.03
2023-03-22T05:02:59.955Z,76.16
2023-03-22T05:05:26.657Z,77.07
2023-03-22T05:07:53.259Z,76.69
2023-03-22T05:10:20.065Z,76.87
2023-03-22T05:12:46.881Z,77.00
2023-03-22T05:15:14.327Z,77.05
2023-03-22T05:17:41.259Z,77.12
2023-03-22T05:20:10.142Z,77.11
2023-03-22T05:22:41.209Z,77.79
2023-03-22T05:25:09.409Z,77.72
2023-03-22T05:27:38.921Z,77.05
2023-03-22T05:30:06.544Z,77.40
2023-03-22T05:32:43.056Z,76.92
2023-03-22T05:35:10.648Z,77.63
2023-03-22T05:37:38.201Z,77.06
2023-03-22T05:40:10.110Z,77.37
2023-03-22T05:42:36.811Z,77.61
2023-03-22T05:45:03.784Z,77.48
2023-03-22T05:47:30.411Z,77.59
2023-03-22T05:49:57.003Z,77.73
2023-03-22T05:52:26.369Z,77.77
2023-03-22T05:54:56.037Z,78.31
2023-03-22T05:57:22.650Z,78.16
2023-03-22T05:59:54.099Z,77.89
2023-03-22T06:02:23.277Z,77.83
2023-03-22T06:04:52.143Z,77.77
2023-03-22T06:07:21.110Z,78.54
2023-03-22T06:09:50.373Z,78.06
2023-03-22T06:12:22.723Z,78.30
2023-03-22T06:14:51.723Z,78.24
2023-03-22T06:17:19.231Z,78.34
2023-03-22T06:19:45.888Z,78.61
2023-03-22T06:22:14.832Z,78.35
2023-03-22T06:24:42.468Z,78.54
2023-03-22T06:27:11.171Z,78.39
2023-03-22T06:29:40.838Z,78.54
2023-03-22T06:32:07.875Z,78.22
2023-03-22T06:34:34.500Z,78.50
2023-03-22T06:37:01.467Z,78.41
2023-03-22T06:39:28.210Z,78.27
2023-03-22T06:41:57.220Z,78.43
2023-03-22T06:44:23.878Z,78.10
2023-03-22T06:46:50.590Z,78.20
2023-03-22T06:49:19.327Z,78.19
2023-03-22T06:51:46.031Z,78.02
2023-03-22T06:54:13.450Z,78.19
2023-03-22T06:56:40.095Z,78.04
2023-03-22T06:59:06.814Z,77.68
2023-03-22T07:01:33.551Z,78.17
2023-03-22T07:04:00.486Z,77.99
2023-03-22T07:06:28.592Z,77.70
2023-03-22T07:08:57.480Z,77.88
2023-03-22T07:11:25.935Z,78.16
2023-03-22T07:13:58.318Z,77.88
2023-03-22T07:16:27.478Z,77.27
2023-03-22T07:18:54.307Z,77.12
2023-03-22T07:21:25.693Z,77.53
2023-03-22T07:23:55.415Z,77.64
2023-03-22T07:26:22.188Z,77.47
2023-03-22T07:28:48.918Z,77.26
2023-03-22T07:31:16.234Z,76.99
2023-03-22T07:33:45.791Z,77.48
2023-03-22T07:36:14.617Z,77.00
2023-03-22T07:38:41.433Z,77.55
2023-03-22T07:41:08.075Z,77.39
2023-03-22T07:43:50.814Z,77.31
2023-03-22T07:46:19.961Z,77.47
2023-03-22T07:48:47.078Z,77.67
2023-03-22T07:51:14.004Z,77.34
2023-03-22T07:53:40.717Z,77.20
2023-03-22T07:56:07.838Z,77.48
2023-03-22T07:58:37.209Z,77.11
2023-03-22T08:01:10.884Z,77.17
2023-03-22T08:03:37.893Z,77.44
2023-03-22T08:06:08.217Z,77.16
2023-03-22T08:08:36.956Z,77.81
2023-03-22T08:11:08.998Z,77.16
2023-03-22T08:13:35.917Z,77.06
2023-03-22T08:16:02.670Z,77.38
2023-03-22T08:18:29.346Z,76.97
2023-03-22T08:21:00.437Z,77.19
2023-03-22T08:23:41.036Z,76.90
2023-03-22T08:26:09.471Z,77.10
2023-03-22T08:28:36.397Z,77.10
2023-03-22T08:31:13.189Z,77.59
2023-03-22T08:33:40.805Z,76.70
2023-03-22T08:36:11.023Z,77.06
2023-03-22T08:38:37.778Z,76.92
2023-03-22T08:41:04.605Z,77.23
2023-03-22T08:43:31.311Z,77.52
2023-03-22T08:45:58.311Z,77.05
2023-03-22T08:48:25.177Z,77.12
2023-03-22T08:50:51.928Z,77.35
2023-03-22T08:53:18.658Z,77.65
2023-03-22T08:55:45.346Z,77.03
2023-03-22T08:58:16.665Z,77.04
2023-03-22T09:00:48.888Z,77.02
2023-03-22T09:03:18.580Z,77.49
2023-03-22T09:05:47.686Z,76.73
2023-03-22T09:08:19.474Z,77.29
2023-03-22T09:10:52.143Z,77.32
2023-03-22T09:13:20.088Z,77.01
2023-03-22T09:15:47.522Z,76.61
2023-03-22T09:18:15.393Z,77.32
2023-03-22T09:20:43.862Z,76.67
2023-03-22T09:23:15.549Z,76.65
2023-03-22T09:25:48.951Z,76.96
2023-03-22T09:28:17.182Z,76.13
2023-03-22T09:30:44.920Z,76.53
2023-03-22T09:33:11.684Z,76.77
2023-03-22T09:35:45.501Z,75.99
2023-03-22T09:38:12.524Z,76.37
2023-03-22T09:41:01.716Z,76.64
2023-03-22T09:43:57.125Z,76.16
2023-03-22T09:46:37.915Z,76.10
2023-03-22T09:49:10.923Z,76.09
2023-03-22T09:51:45.084Z,75.64
2023-03-22T09:54:21.551Z,75.80
2023-03-22T09:57:06.563Z,76.42
2023-03-22T09:59:48.493Z,76.54
2023-03-22T10:02:57.570Z,76.34
2023-03-22T10:05:35.809Z,76.14
2023-03-22T10:08:14.071Z,76.23
2023-03-22T10:10:43.142Z,75.96
2023-03-22T10:13:14.832Z,76.07
2023-03-22T10:15:50.011Z,75.83
2023-03-22T10:18:22.353Z,75.86
2023-03-22T10:20:49.094Z,76.30
2023-03-22T10:23:30.752Z,76.28
2023-03-22T10:26:01.136Z,75.97
2023-03-22T10:28:39.266Z,76.10
2023-03-22T10:31:13.188Z,76.15
2023-03-22T10:33:52.572Z,75.68
2023-03-22T10:36:24.516Z,75.91
2023-03-22T10:39:01.361Z,76.12
2023-03-22T10:41:29.680Z,76.47
2023-03-22T10:44:00.457Z,76.16
2023-03-22T10:46:33.669Z,76.13
2023-03-22T10:49:02.333Z,76.32
2023-03-22T10:51:48.048Z,75.78
2023-03-22T10:54:21.632Z,76.19
2023-03-22T10:56:48.394Z,75.41
2023-03-22T10:59:48.617Z,76.19
2023-03-22T11:02:30.700Z,75.69
2023-03-22T11:05:00.711Z,75.87
2023-03-22T11:07:44.914Z,75.07
2023-03-22T11:10:19.194Z,75.20
2023-03-22T11:12:55.232Z,75.20
2023-03-22T11:15:34.701Z,75.81
2023-03-22T11:18:32.342Z,74.79
2023-03-22T11:21:08.055Z,74.56
2023-03-22T11:23:36.150Z,74.81
2023-03-22T11:26:11.641Z,75.03
2023-03-22T11:28:47.376Z,75.68
2023-03-22T11:31:16.839Z,75.12
2023-03-22T11:33:59.021Z,75.10
2023-03-22T11:36:26.979Z,74.92
2023-03-22T11:39:06.489Z,75.37
2023-03-22T11:41:37.687Z,74.91
2023-03-22T11:44:13.963Z,73.66
2023-03-22T11:46:53.017Z,73.19
2023-03-22T11:49:19.820Z,72.96
2023-03-22T11:51:46.799Z,72.90
2023-03-22T11:54:16.921Z,72.50
2023-03-22T11:56:47.344Z,72.37
2023-03-22T11:59:17.324Z,71.65
2023-03-22T12:01:50.107Z,71.58
2023-03-22T12:04:22.961Z,71.45
2023-03-22T12:06:56.887Z,71.20
2023-03-22T12:09:32.710Z,70.44
2023-03-22T12:12:02.039Z,70.04
2023-03-22T12:14:33.568Z,69.49
2023-03-22T12:17:04.770Z,69.18
2023-03-22T12:19:49.526Z,68.37
2023-03-22T12:22:21.226Z,68.20
2023-03-22T12:24:50.065Z,68.29
2023-03-22T12:27:22.054Z,67.69
2023-03-22T12:30:19.941Z,66.85
2023-03-22T12:32:52.376Z,67.33
2023-03-22T12:35:27.524Z,66.69
2023-03-22T12:38:07.221Z,67.02
2023-03-22T12:40:38.461Z,67.34
2023-03-22T12:43:31.535Z,66.52
2023-03-22T12:46:01.867Z,67.38
2023-03-22T12:48:36.479Z,67.84
2023-03-22T12:51:06.681Z,66.87
2023-03-22T12:53:42.717Z,67.17
2023-03-22T12:56:18.867Z,67.21
2023-03-22T12:58:55.077Z,66.89
2023-03-22T13:01:34.984Z,66.49
2023-03-22T13:04:31.707Z,65.70
2023-03-22T13:07:30.607Z,65.76
2023-03-22T13:10:01.211Z,65.68
2023-03-22T13:12:34.068Z,65.31
2023-03-22T13:15:41.385Z,65.60
2023-03-22T13:18:38.020Z,65.64
2023-03-22T13:21:13.028Z,65.69
2023-03-22T13:24:05.446Z,64.61
2023-03-22T13:26:49.669Z,64.52
2023-03-22T13:29:25.068Z,64.38
2023-03-22T13:31:54.309Z,64.51
2023-03-22T13:34:33.120Z,64.01
2023-03-22T13:37:03.695Z,64.43
2023-03-22T13:39:39.343Z,63.40
2023-03-22T13:42:27.046Z,63.44
2023-03-22T13:45:02.676Z,63.98
2023-03-22T13:47:35.346Z,63.69
2023-03-22T13:50:28.359Z,63.71
2023-03-22T13:53:02.449Z,63.69
2023-03-22T13:55:43.886Z,63.91
2023-03-22T13:58:36.233Z,63.54
2023-03-22T14:01:07.025Z,63.81
2023-03-22T14:03:42.294Z,63.32
2023-03-22T14:06:19.601Z,64.17
2023-03-22T14:08:54.473Z,64.67
2023-03-22T14:11:39.462Z,64.65
2023-03-22T14:14:18.179Z,64.46
2023-03-22T14:17:02.991Z,64.16
2023-03-22T14:19:34.900Z,64.14
